createdAt,value
2022-10-18T00:10:07.987Z,14.23
2022-10-18T00:25:50.314Z,14.42
2022-10-18T00:41:33.283Z,14.56
2022-10-18T00:57:16.027Z,14.58
2022-10-18T01:12:58.111Z,14.54
2022-10-18T01:28:40.272Z,14.62
2022-10-18T01:44:22.646Z,14.8
2022-10-18T02:00:05.596Z,14.97
2022-10-18T02:15:47.615Z,15.18
2022-10-18T02:31:29.800Z,15.39
2022-10-18T02:47:12.145Z,15.56
2022-10-18T03:02:54.147Z,15.73
2022-10-18T03:18:36.981Z,15.85
2022-10-18T03:34:19.347Z,15.88
2022-10-18T03:50:01.807Z,15.74
2022-10-18T04:05:44.769Z,15.66
2022-10-18T04:21:27.142Z,15.56
2022-10-18T04:37:09.859Z,15.48
2022-10-18T04:52:52.455Z,15.35
2022-10-18T05:08:34.648Z,15.31
2022-10-18T05:24:17.232Z,15.26
2022-10-18T05:39:59.288Z,15.2
2022-10-18T05:55:41.696Z,15.1
2022-10-18T06:11:24.452Z,15.06
2022-10-18T06:27:07.080Z,15.02
2022-10-18T06:42:49.513Z,14.99
2022-10-18T06:58:32.217Z,15.03
2022-10-18T07:14:14.642Z,15.15
2022-10-18T07:29:56.793Z,15.13
2022-10-18T07:45:38.897Z,15.26
2022-10-18T08:01:21.530Z,15.44
2022-10-18T08:17:04.146Z,15.74
2022-10-18T08:32:46.644Z,15.75
2022-10-18T08:48:29.398Z,15.59
2022-10-18T09:04:11.898Z,15.43
2022-10-18T09:19:54.751Z,15.26
2022-10-18T09:35:37.791Z,15.04
2022-10-18T09:51:20.692Z,14.91
2022-10-18T10:07:03.506Z,14.83
2022-10-18T10:22:45.671Z,14.75
2022-10-18T10:38:28.111Z,14.68
2022-10-18T10:54:10.519Z,14.67
2022-10-18T11:09:52.695Z,14.81
2022-10-18T11:25:35.574Z,15
2022-10-18T11:41:18.521Z,15.13
2022-10-18T11:57:01.147Z,15.36
2022-10-18T12:12:43.639Z,15.42
2022-10-18T12:28:26.348Z,15.45
2022-10-18T12:44:08.904Z,15.52
2022-10-18T12:44:56.228Z,15.69
2022-10-18T13:00:38.246Z,15.62
2022-10-18T13:16:20.491Z,15.66
2022-10-18T13:32:02.781Z,15.77
2022-10-18T13:47:45.786Z,15.93
2022-10-18T14:03:28.038Z,16.1
2022-10-18T14:19:10.244Z,16.16
2022-10-18T14:34:52.924Z,17.2
2022-10-18T14:50:35.601Z,16.9
2022-10-18T15:06:18.147Z,16.27
2022-10-18T15:22:00.538Z,15.65
2022-10-18T15:37:42.985Z,15.28
2022-10-18T15:53:25.796Z,15
2022-10-18T16:09:08.432Z,14.64
2022-10-18T16:24:50.749Z,14.25
2022-10-18T16:40:32.950Z,13.86
2022-10-18T16:56:15.116Z,13.46
2022-10-18T17:11:57.467Z,13.16
2022-10-18T17:27:39.671Z,12.81
2022-10-18T17:43:22.414Z,12.5
2022-10-18T17:59:05.250Z,12.17
2022-10-18T18:14:48.219Z,12.11
2022-10-18T18:30:30.916Z,11.75
2022-10-18T18:46:13.689Z,11.58
2022-10-18T19:01:55.791Z,11.55
2022-10-18T19:17:38.042Z,11.51
2022-10-18T19:33:20.685Z,11.39
2022-10-18T19:49:03.723Z,11.17
2022-10-18T20:04:45.914Z,10.85
2022-10-18T20:20:28.524Z,10.65
2022-10-18T20:36:11.037Z,10.44
2022-10-18T20:51:54.112Z,10.24
2022-10-18T21:07:36.266Z,10.08
2022-10-18T21:23:19.223Z,10.04
2022-10-18T21:39:02.082Z,9.93
2022-10-18T21:54:44.239Z,9.84
2022-10-18T22:10:27.054Z,9.7
2022-10-18T22:26:09.571Z,9.55
2022-10-18T22:41:52.318Z,9.38
2022-10-18T22:57:34.864Z,9.35
2022-10-18T23:13:17.365Z,9.58
2022-10-18T23:29:00.426Z,9.75
2022-10-18T23:44:42.718Z,9.89
